Time;durP1;ratioP1;P1;durP2;ratioP2;P2;SDS_P1;SDS_P2;PMS_P1;PMS_P2;Temp;Humidity;BMP_temperature;BMP_pressure;BME280_temperature;BME280_humidity;BME280_pressure;Samples;Min_cycle;Max_cycle;Signal;HPM_P1;HPM_P2
2021/07/23 00:00:18;;;;;;;4.42;2.70;;;;;;;17.99;55.00;99355.19;1766793;81;20968;-40
2021/07/23 00:02:44;;;;;;;5.65;2.45;;;;;;;17.95;55.08;99349.75;1766614;81;20894;-40
2021/07/23 00:05:11;;;;;;;5.40;2.80;;;;;;;17.94;55.26;99344.67;1766859;81;21099;-40
2021/07/23 00:07:38;;;;;;;6.78;2.90;;;;;;;17.91;55.36;99348.99;1766623;81;21107;-40
2021/07/23 00:10:06;;;;;;;6.45;2.70;;;;;;;17.90;55.24;99354.91;1766646;81;21575;-40
2021/07/23 00:12:32;;;;;;;11.28;2.50;;;;;;;17.87;55.24;99352.96;1766444;80;20992;-40
2021/07/23 00:14:59;;;;;;;6.58;2.65;;;;;;;17.81;55.46;99358.89;1766818;81;21029;-40
2021/07/23 00:17:26;;;;;;;4.42;2.55;;;;;;;17.78;55.59;99355.60;1766566;81;21072;-39
2021/07/23 00:19:53;;;;;;;6.37;2.77;;;;;;;17.77;55.56;99351.89;1766576;81;21113;-40
2021/07/23 00:22:19;;;;;;;5.22;2.47;;;;;;;17.77;55.64;99351.89;1766700;81;21035;-39
2021/07/23 00:24:46;;;;;;;4.45;2.35;;;;;;;17.75;55.61;99349.57;1766537;81;21092;-39
2021/07/23 00:27:15;;;;;;;4.58;2.70;;;;;;;17.74;55.61;99352.13;1766658;81;21032;-40
2021/07/23 00:29:42;;;;;;;5.17;2.75;;;;;;;17.73;55.66;99354.67;1766844;81;21032;-40
2021/07/23 00:32:10;;;;;;;7.67;2.75;;;;;;;17.72;55.67;99361.92;1771887;79;21580;-40
2021/07/23 00:34:37;;;;;;;6.72;2.62;;;;;;;17.71;55.66;99356.28;1772730;81;21545;-40
2021/07/23 00:37:04;;;;;;;4.00;2.30;;;;;;;17.69;55.76;99351.78;1772808;81;21044;-40
2021/07/23 00:39:32;;;;;;;4.45;2.60;;;;;;;17.67;55.65;99357.66;1768956;79;21021;-40
2021/07/23 00:41:59;;;;;;;6.72;2.50;;;;;;;17.64;55.74;99354.38;1766651;81;21029;-40
2021/07/23 00:44:25;;;;;;;4.00;2.42;;;;;;;17.62;56.02;99350.50;1766732;80;21768;-40
2021/07/23 00:46:55;;;;;;;6.55;2.60;;;;;;;17.59;56.04;99353.45;1766426;81;21594;-39
2021/07/23 00:49:25;;;;;;;5.12;2.47;;;;;;;17.58;55.84;99359.30;1766672;81;21471;-40
2021/07/23 00:51:53;;;;;;;5.22;2.30;;;;;;;17.55;55.74;99356.79;1766372;81;21024;-40
2021/07/23 00:54:19;;;;;;;2.87;2.05;;;;;;;17.49;55.71;99352.92;1766907;81;21076;-40
2021/07/23 00:56:47;;;;;;;8.63;2.30;;;;;;;17.46;55.87;99353.74;1766354;81;21116;-40
2021/07/23 00:59:16;;;;;;;6.90;2.67;;;;;;;17.45;55.80;99352.77;1766690;81;20965;-40
2021/07/23 01:01:44;;;;;;;4.47;2.35;;;;;;;17.41;55.90;99354.17;1766523;81;21017;-40
2021/07/23 01:04:11;;;;;;;5.37;2.25;;;;;;;17.38;55.91;99349.48;1766806;81;20952;-40
2021/07/23 01:06:38;;;;;;;6.25;2.70;;;;;;;17.36;55.98;99353.23;1773134;80;21391;-40
2021/07/23 01:09:07;;;;;;;3.17;2.50;;;;;;;17.34;56.16;99356.38;1766737;81;21101;-40
2021/07/23 01:11:38;;;;;;;6.22;2.45;;;;;;;17.32;56.19;99354.66;1766595;80;20981;-40
2021/07/23 01:14:18;;;;;;;5.25;2.05;;;;;;;17.30;56.14;99352.11;1765773;80;20969;-40
2021/07/23 01:16:46;;;;;;;5.28;2.70;;;;;;;17.25;56.21;99353.91;1766623;81;21511;-39
2021/07/23 01:19:13;;;;;;;6.95;2.60;;;;;;;17.19;56.33;99350.05;1766656;81;21031;-39
2021/07/23 01:21:42;;;;;;;5.87;2.72;;;;;;;17.16;56.42;99350.86;1766498;81;21080;-39
2021/07/23 01:24:13;;;;;;;4.17;2.35;;;;;;;17.10;56.51;99349.14;1766595;81;21027;-39
2021/07/23 01:26:44;;;;;;;7.03;2.37;;;;;;;17.07;56.57;99349.17;1766527;80;20941;-39
2021/07/23 01:29:13;;;;;;;5.78;2.25;;;;;;;17.03;56.66;99347.84;1766609;81;21056;-40
2021/07/23 01:31:42;;;;;;;5.15;2.20;;;;;;;17.02;56.79;99341.38;1770714;79;20972;-39
2021/07/23 01:34:10;;;;;;;4.95;2.20;;;;;;;17.01;56.76;99348.03;1772923;81;21059;-40
2021/07/23 01:36:38;;;;;;;4.97;2.52;;;;;;;16.98;56.83;99346.11;1772725;81;21680;-40
2021/07/23 01:39:06;;;;;;;6.53;2.70;;;;;;;16.94;56.88;99345.53;1772632;81;20929;-39
2021/07/23 01:41:33;;;;;;;7.03;2.30;;;;;;;16.92;57.03;99347.13;1772973;81;21079;-40
2021/07/23 01:44:00;;;;;;;8.95;2.77;;;;;;;16.89;57.10;99353.42;1746167;81;21096;-39
2021/07/23 01:46:27;;;;;;;5.50;2.35;;;;;;;16.86;57.19;99345.98;1772734;81;21100;-40
2021/07/23 01:48:59;;;;;;;7.05;2.40;;;;;;;16.84;57.33;99346.41;1771776;80;21050;-40
2021/07/23 01:51:30;;;;;;;8.68;2.47;;;;;;;16.73;57.44;99339.43;1772147;80;21004;-39
2021/07/23 01:53:57;;;;;;;6.78;2.77;;;;;;;16.77;57.79;99346.44;1772743;81;20969;-40
2021/07/23 01:56:24;;;;;;;5.53;2.37;;;;;;;16.75;57.62;99350.77;1772770;81;21075;-40
2021/07/23 01:58:55;;;;;;;6.75;2.15;;;;;;;16.76;57.63;99354.45;1772664;81;21124;-39
2021/07/23 02:01:23;;;;;;;4.95;2.60;;;;;;;16.75;57.57;99347.42;1773003;81;20917;-40
2021/07/23 02:03:51;;;;;;;6.78;2.22;;;;;;;16.76;57.69;99352.31;1771855;80;21040;-40
2021/07/23 02:06:18;;;;;;;5.17;2.25;;;;;;;16.74;57.74;99352.73;1772817;81;21479;-39
2021/07/23 02:08:45;;;;;;;7.70;2.35;;;;;;;16.72;57.66;99355.08;1773050;81;20984;-40
2021/07/23 02:11:12;;;;;;;4.83;2.83;;;;;;;16.68;57.78;99352.95;1772777;81;21092;-40
2021/07/23 02:13:40;;;;;;;8.75;2.42;;;;;;;16.64;57.91;99350.83;1748796;81;20952;-39
2021/07/23 02:16:08;;;;;;;5.30;2.40;;;;;;;16.63;57.99;99351.22;1773064;81;21048;-40
2021/07/23 02:18:34;;;;;;;9.60;2.60;;;;;;;16.62;57.93;99344.97;1772723;81;21005;-39
2021/07/23 02:21:07;;;;;;;6.87;2.58;;;;;;;16.62;58.02;99346.33;1773082;81;21052;-39
2021/07/23 02:23:34;;;;;;;8.43;2.72;;;;;;;16.61;58.06;99346.72;1772849;81;21054;-39
2021/07/23 02:26:00;;;;;;;4.75;2.12;;;;;;;16.59;58.03;99349.88;1772865;81;21024;-39
2021/07/23 02:28:27;;;;;;;9.80;2.58;;;;;;;16.58;58.13;99349.69;1772736;81;21600;-39
2021/07/23 02:30:55;;;;;;;5.62;2.65;;;;;;;16.56;58.32;99352.00;1772731;79;20968;-40
2021/07/23 02:33:26;;;;;;;7.58;3.02;;;;;;;16.55;58.31;99358.67;1772824;81;21028;-40
2021/07/23 02:35:57;;;;;;;5.62;3.52;;;;;;;16.55;58.29;99353.20;1770810;80;21222;-40
2021/07/23 02:38:24;;;;;;;7.72;3.65;;;;;;;16.55;58.42;99356.52;1772754;81;21019;-40
2021/07/23 02:40:54;;;;;;;9.70;4.03;;;;;;;16.53;58.45;99355.55;1771996;80;20980;-40
2021/07/23 02:43:22;;;;;;;6.25;3.77;;;;;;;16.50;58.47;99350.30;1772853;81;21015;-41
2021/07/23 02:45:50;;;;;;;7.05;3.37;;;;;;;16.49;58.46;99347.95;1773076;81;21565;-41
2021/07/23 02:48:17;;;;;;;6.22;3.40;;;;;;;16.46;58.65;99351.46;1772777;81;21092;-41
2021/07/23 02:50:44;;;;;;;5.53;3.08;;;;;;;16.45;58.78;99347.19;1772635;81;20949;-40
2021/07/23 02:53:12;;;;;;;7.65;3.37;;;;;;;16.44;58.78;99352.47;1772814;81;20997;-41
2021/07/23 02:55:41;;;;;;;5.87;2.95;;;;;;;16.43;58.90;99355.80;1772838;81;21030;-41
2021/07/23 02:58:07;;;;;;;8.93;3.15;;;;;;;16.41;59.00;99350.54;1772849;80;21091;-41
2021/07/23 03:00:35;;;;;;;8.30;3.12;;;;;;;16.42;59.10;99352.08;1773051;81;21885;-40
2021/07/23 03:03:04;;;;;;;6.67;3.25;;;;;;;16.45;58.87;99358.14;1772763;81;21057;-41
2021/07/23 03:05:31;;;;;;;8.38;3.10;;;;;;;16.46;58.93;99350.09;1773206;81;21004;-40
2021/07/23 03:07:59;;;;;;;6.37;3.10;;;;;;;16.48;58.86;99358.11;1772890;81;21378;-41
2021/07/23 03:10:26;;;;;;;4.62;2.80;;;;;;;16.48;58.99;99355.96;1772908;81;21011;-40
2021/07/23 03:12:53;;;;;;;7.70;3.02;;;;;;;16.47;58.83;99354.40;1773141;80;21114;-41
2021/07/23 03:15:22;;;;;;;6.80;2.92;;;;;;;16.49;58.97;99358.89;1773326;80;21015;-40
2021/07/23 03:17:49;;;;;;;8.48;2.62;;;;;;;16.51;59.02;99355.94;1773321;80;21268;-41
2021/07/23 03:20:18;;;;;;;6.75;3.00;;;;;;;16.53;59.08;99352.81;1773523;80;21562;-40
2021/07/23 03:22:45;;;;;;;6.10;3.25;;;;;;;16.56;59.06;99358.06;1773355;80;21060;-40
2021/07/23 03:25:14;;;;;;;8.43;3.20;;;;;;;16.61;59.17;99362.56;1770400;80;21841;-40
2021/07/23 03:27:45;;;;;;;7.70;3.33;;;;;;;16.64;59.10;99360.41;1749149;80;20995;-40
2021/07/23 03:30:15;;;;;;;6.12;3.00;;;;;;;16.66;59.36;99359.99;1775140;79;21505;-41
2021/07/23 03:32:42;;;;;;;6.17;2.90;;;;;;;16.66;59.25;99356.67;1764403;81;21034;-41
2021/07/23 03:35:09;;;;;;;7.87;3.30;;;;;;;16.68;59.26;99362.53;1803020;79;21015;-41
2021/07/23 03:37:38;;;;;;;6.25;3.08;;;;;;;16.70;59.20;99359.41;1800693;79;21940;-40
2021/07/23 03:40:25;;;;;;;5.92;2.98;;;;;;;16.70;59.42;99360.77;1764538;81;21033;-40
2021/07/23 03:42:52;;;;;;;7.83;2.87;;;;;;;16.73;59.60;99359.38;1802681;79;21499;-41
2021/07/23 03:45:21;;;;;;;6.25;3.10;;;;;;;16.77;59.58;99362.87;1802708;79;21018;-41
2021/07/23 03:47:53;;;;;;;6.87;2.67;;;;;;;16.81;59.51;99364.98;1762744;81;21287;-41
2021/07/23 03:50:20;;;;;;;5.80;3.02;;;;;;;16.89;59.47;99360.27;1802613;79;21111;-41
2021/07/23 03:52:55;;;;;;;9.40;3.40;;;;;;;16.94;59.30;99363.95;1764091;81;21036;-41
2021/07/23 03:55:39;;;;;;;9.53;3.50;;;;;;;16.97;59.60;99365.88;1764517;81;21017;-40
2021/07/23 03:58:06;;;;;;;7.75;3.20;;;;;;;17.04;59.58;99358.20;1764608;81;20941;-40
2021/07/23 04:00:34;;;;;;;7.10;2.92;;;;;;;17.09;59.54;99361.89;1764358;81;21540;-40
2021/07/23 04:03:01;;;;;;;9.03;3.33;;;;;;;17.13;59.62;99369.48;1764822;81;21085;-40
2021/07/23 04:05:28;;;;;;;5.50;3.00;;;;;;;17.15;60.01;99364.36;1764270;81;21013;-40
2021/07/23 04:07:59;;;;;;;5.25;3.08;;;;;;;17.19;59.78;99363.73;1734883;81;21499;-40
2021/07/23 04:10:28;;;;;;;4.58;2.95;;;;;;;17.20;59.85;99364.72;1802465;79;20969;-40
2021/07/23 04:12:55;;;;;;;4.80;3.10;;;;;;;17.22;59.93;99361.58;1801788;79;20938;-40
2021/07/23 04:15:22;;;;;;;5.20;2.80;;;;;;;17.21;60.21;99366.87;1762049;81;21227;-40
2021/07/23 04:18:08;;;;;;;4.85;2.83;;;;;;;17.21;60.42;99369.61;1762021;81;21005;-40
2021/07/23 04:20:36;;;;;;;6.47;3.00;;;;;;;17.24;60.42;99366.83;1799785;79;21480;-40
2021/07/23 04:23:04;;;;;;;5.72;3.02;;;;;;;17.29;60.38;99365.62;1800111;79;20997;-40
2021/07/23 04:25:32;;;;;;;4.87;2.92;;;;;;;17.34;60.39;99363.23;1762007;81;21532;-40
2021/07/23 04:27:59;;;;;;;4.87;2.83;;;;;;;17.41;60.52;99358.29;1762082;81;21826;-40
2021/07/23 04:30:33;;;;;;;7.37;3.30;;;;;;;17.54;60.60;99357.97;1801857;79;21003;-41
2021/07/23 04:33:17;;;;;;;12.40;3.60;;;;;;;17.66;60.37;99353.39;1815304;79;20964;-40
2021/07/23 04:35:46;;;;;;;6.83;3.20;;;;;;;17.75;60.23;99353.69;1813161;79;20933;-40
2021/07/23 04:38:14;;;;;;;8.85;3.33;;;;;;;17.86;60.06;99354.95;1815667;79;21032;-40
2021/07/23 04:40:43;;;;;;;7.05;3.20;;;;;;;17.92;59.54;99352.52;1815414;78;21177;-40
2021/07/23 04:43:12;;;;;;;10.58;3.35;;;;;;;17.93;59.64;99354.86;1815668;78;21546;-40
2021/07/23 04:45:40;;;;;;;7.42;3.50;;;;;;;17.98;59.69;99353.04;1815613;79;21075;-40
2021/07/23 04:48:08;;;;;;;10.07;3.60;;;;;;;18.05;59.75;99350.82;1816326;79;21558;-40
2021/07/23 04:50:36;;;;;;;6.40;3.50;;;;;;;18.12;59.72;99344.64;1811002;79;20981;-40
2021/07/23 04:53:17;;;;;;;7.72;3.90;;;;;;;18.18;59.71;99344.98;1767372;79;21126;-40
2021/07/23 04:56:04;;;;;;;8.58;4.03;;;;;;;18.25;60.20;99352.52;1815691;79;20988;-40
2021/07/23 04:58:33;;;;;;;8.93;3.42;;;;;;;18.31;59.79;99354.21;1775905;80;20968;-40
2021/07/23 05:01:00;;;;;;;4.80;3.02;;;;;;;18.35;60.03;99349.45;1783501;80;21029;-40
2021/07/23 05:03:36;;;;;;;7.00;2.80;;;;;;;18.46;59.97;99353.44;1783634;80;21582;-40
2021/07/23 05:06:07;;;;;;;5.08;2.83;;;;;;;18.60;59.80;99354.05;1783813;80;21114;-40
2021/07/23 05:08:35;;;;;;;4.00;2.30;;;;;;;18.78;59.23;99357.95;1749120;82;21028;-40
2021/07/23 05:11:10;;;;;;;5.80;2.85;;;;;;;18.89;58.29;99355.80;1783614;80;20941;-40
2021/07/23 05:13:40;;;;;;;7.72;2.42;;;;;;;18.99;57.63;99355.45;1676824;84;20947;-42
2021/07/23 05:16:08;;;;;;;3.42;2.22;;;;;;;19.10;57.79;99362.95;1739245;82;21099;-40
2021/07/23 05:18:37;;;;;;;8.63;2.85;;;;;;;19.19;57.24;99360.45;1709080;82;21541;-40
2021/07/23 05:21:05;;;;;;;9.43;2.83;;;;;;;19.27;56.70;99361.88;1739527;82;20936;-40
2021/07/23 05:23:34;;;;;;;7.10;2.75;;;;;;;19.34;56.49;99363.14;1739374;82;21028;-40
2021/07/23 05:26:05;;;;;;;3.58;2.42;;;;;;;19.42;56.18;99363.20;1739400;82;20979;-40
2021/07/23 05:28:32;;;;;;;5.87;2.50;;;;;;;19.50;56.17;99361.15;1739486;82;21052;-40
2021/07/23 05:31:03;;;;;;;5.20;2.70;;;;;;;19.57;55.93;99361.61;1714576;82;21029;-40
2021/07/23 05:33:27;;;;;;;7.55;2.80;;;;;;;19.59;55.84;99360.00;1732664;82;20973;-40
2021/07/23 05:35:54;;;;;;;5.28;2.30;;;;;;;19.65;56.11;99353.43;1733574;82;20945;-40
2021/07/23 05:38:21;;;;;;;3.98;2.20;;;;;;;19.74;55.59;99355.03;1733516;82;21009;-40
2021/07/23 05:40:47;;;;;;;4.75;2.20;;;;;;;19.81;55.66;99352.91;1733477;82;21044;-40
2021/07/23 05:43:14;;;;;;;7.58;2.35;;;;;;;19.91;55.62;99351.16;1733515;82;21125;-40
2021/07/23 05:45:41;;;;;;;6.97;2.35;;;;;;;20.00;54.88;99351.37;1733285;82;21531;-40
2021/07/23 05:48:08;;;;;;;4.22;2.65;;;;;;;20.08;54.02;99352.02;1733409;82;21526;-40
2021/07/23 05:50:35;;;;;;;5.95;2.15;;;;;;;20.13;53.63;99354.28;1733444;82;20984;-41
2021/07/23 05:53:02;;;;;;;5.42;2.25;;;;;;;20.19;52.77;99351.97;1732686;82;21036;-40
2021/07/23 05:55:29;;;;;;;4.87;2.00;;;;;;;20.25;53.16;99355.78;1703372;84;21145;-40
2021/07/23 05:57:58;;;;;;;7.87;2.30;;;;;;;20.31;52.46;99347.84;1703243;84;21099;-40
2021/07/23 06:00:26;;;;;;;5.03;2.00;;;;;;;20.35;52.22;99353.45;1703469;84;21045;-40
2021/07/23 06:02:54;;;;;;;6.12;1.82;;;;;;;20.40;52.10;99354.92;1703175;84;21014;-40
2021/07/23 06:05:22;;;;;;;6.62;2.12;;;;;;;20.46;52.16;99355.20;1703421;84;21070;-40
2021/07/23 06:07:49;;;;;;;5.20;2.30;;;;;;;20.51;52.43;99356.08;1703374;84;21832;-40
2021/07/23 06:10:15;;;;;;;2.20;1.67;;;;;;;20.59;52.47;99356.09;1703198;84;21122;-40
2021/07/23 06:12:42;;;;;;;4.12;2.17;;;;;;;20.69;52.01;99355.08;1703174;84;20935;-41
2021/07/23 06:15:10;;;;;;;4.70;2.00;;;;;;;20.79;52.22;99354.85;1729157;82;21506;-40
2021/07/23 06:17:37;;;;;;;6.25;2.20;;;;;;;20.91;51.65;99360.30;1730877;82;21096;-40
2021/07/23 06:20:05;;;;;;;7.80;1.95;;;;;;;21.01;51.73;99365.39;1730929;82;21555;-41
2021/07/23 06:22:32;;;;;;;2.87;2.00;;;;;;;21.10;51.49;99360.84;1730886;82;21008;-40
2021/07/23 06:24:58;;;;;;;4.80;1.90;;;;;;;21.20;51.35;99363.95;1731057;82;20997;-40
2021/07/23 06:27:26;;;;;;;5.17;1.90;;;;;;;21.31;51.16;99365.06;1721184;83;21044;-41
2021/07/23 06:29:55;;;;;;;4.95;1.90;;;;;;;21.42;50.03;99359.30;1774995;80;21335;-40
2021/07/23 06:32:24;;;;;;;3.98;2.15;;;;;;;21.47;49.44;99360.94;1811662;79;21129;-40
2021/07/23 06:34:51;;;;;;;4.10;1.87;;;;;;;21.50;49.75;99364.19;1813653;79;20966;-40
2021/07/23 06:37:21;;;;;;;4.15;2.00;;;;;;;21.55;49.04;99359.53;1813762;79;21503;-40
2021/07/23 06:39:48;;;;;;;5.90;2.15;;;;;;;21.59;48.72;99351.94;1813779;78;20918;-41
2021/07/23 06:42:16;;;;;;;5.10;2.05;;;;;;;21.66;48.65;99349.00;1814290;78;21017;-40
2021/07/23 06:44:43;;;;;;;8.20;2.20;;;;;;;21.72;49.27;99345.12;1813765;78;21094;-40
2021/07/23 06:47:10;;;;;;;4.83;1.80;;;;;;;21.81;49.36;99344.48;1813555;79;20989;-41
2021/07/23 06:49:37;;;;;;;3.98;1.85;;;;;;;21.91;48.53;99348.34;1813722;79;20948;-40
2021/07/23 06:52:04;;;;;;;3.55;1.80;;;;;;;21.95;47.82;99343.52;1783353;79;22207;-40
2021/07/23 06:54:31;;;;;;;5.97;2.10;;;;;;;22.03;48.22;99348.23;1780813;80;21043;-41
2021/07/23 06:56:58;;;;;;;3.85;1.55;;;;;;;22.13;47.40;99347.77;1780793;80;21097;-40
2021/07/23 06:59:25;;;;;;;3.37;1.50;;;;;;;22.20;47.87;99351.72;1780925;80;21040;-40
2021/07/23 07:01:51;;;;;;;4.17;1.92;;;;;;;22.25;46.38;99345.66;1780737;80;21012;-40
2021/07/23 07:04:18;;;;;;;4.03;1.50;;;;;;;22.28;46.02;99340.63;1780704;80;21113;-41
2021/07/23 07:06:44;;;;;;;6.15;1.60;;;;;;;22.28;46.36;99339.24;1780895;80;21059;-41
2021/07/23 07:09:11;;;;;;;2.60;1.62;;;;;;;22.34;46.30;99339.66;1780672;80;21151;-41
2021/07/23 07:11:38;;;;;;;8.93;1.87;;;;;;;22.42;47.11;99338.83;1780886;80;21569;-40
2021/07/23 07:14:06;;;;;;;5.05;1.60;;;;;;;22.54;46.32;99342.23;1781713;79;21042;-41
2021/07/23 07:16:33;;;;;;;3.62;1.40;;;;;;;22.63;45.47;99337.42;1783066;80;21194;-41
2021/07/23 07:19:00;;;;;;;3.87;1.80;;;;;;;22.72;45.46;99338.34;1779402;80;21557;-43
2021/07/23 07:21:28;;;;;;;3.10;1.45;;;;;;;22.70;45.43;99321.44;1783228;80;21163;-40
2021/07/23 07:23:56;;;;;;;2.75;1.45;;;;;;;22.88;45.31;99336.86;1783132;80;20932;-41
2021/07/23 07:26:22;;;;;;;6.28;1.67;;;;;;;23.00;44.97;99330.36;1783400;80;21046;-40
2021/07/23 07:28:49;;;;;;;2.65;1.50;;;;;;;23.12;46.00;99337.88;1783159;80;21543;-41
2021/07/23 07:31:16;;;;;;;3.50;1.57;;;;;;;23.26;44.55;99337.41;1774967;79;20998;-41
2021/07/23 07:33:43;;;;;;;2.62;1.25;;;;;;;23.36;43.71;99343.20;1765820;80;21121;-41
2021/07/23 07:36:17;;;;;;;4.97;1.50;;;;;;;23.48;43.74;99339.65;1765757;81;20961;-41
2021/07/23 07:38:39;;;;;;;1.72;1.27;;;;;;;23.60;44.38;99341.62;1764993;81;21008;-41
2021/07/23 07:41:06;;;;;;;6.15;1.60;;;;;;;23.72;42.31;99332.48;1765809;80;20973;-40
2021/07/23 07:43:34;;;;;;;2.98;1.30;;;;;;;23.83;42.77;99334.88;1765643;80;21009;-41
2021/07/23 07:46:00;;;;;;;3.25;1.30;;;;;;;23.94;41.97;99331.73;1765786;81;21125;-41
2021/07/23 07:48:29;;;;;;;4.65;1.50;;;;;;;24.02;41.62;99331.63;1765626;80;22019;-41
2021/07/23 07:50:56;;;;;;;4.20;1.30;;;;;;;24.10;42.05;99329.56;1765896;81;21010;-40
2021/07/23 07:53:22;;;;;;;2.00;1.10;;;;;;;24.22;41.63;99334.88;1766040;81;21034;-40
2021/07/23 07:55:49;;;;;;;3.42;1.32;;;;;;;24.31;41.66;99329.39;1765829;81;21096;-41
2021/07/23 07:58:16;;;;;;;4.83;1.62;;;;;;;24.40;40.31;99328.05;1765827;81;21140;-41
2021/07/23 08:00:44;;;;;;;2.70;1.40;;;;;;;24.49;41.37;99331.52;1765571;80;20965;-41
2021/07/23 08:03:11;;;;;;;3.67;1.60;;;;;;;24.61;41.08;99334.18;1765991;81;21025;-40
2021/07/23 08:05:37;;;;;;;5.03;1.40;;;;;;;24.76;40.27;99341.33;1765749;81;21323;-41
2021/07/23 08:08:09;;;;;;;2.25;1.20;;;;;;;24.88;39.67;99335.56;1786003;80;21029;-41
2021/07/23 08:10:45;;;;;;;4.45;1.30;;;;;;;24.92;39.01;99327.27;1797391;79;21146;-41
2021/07/23 08:13:07;;;;;;;3.25;1.40;;;;;;;24.98;38.86;99334.37;1796238;79;20954;-41
2021/07/23 08:15:36;;;;;;;3.65;1.20;;;;;;;24.95;38.45;99337.43;1803510;79;21551;-41
2021/07/23 08:18:03;;;;;;;1.90;1.17;;;;;;;24.92;39.02;99334.80;1804570;79;21004;-41
2021/07/23 08:20:32;;;;;;;3.30;1.27;;;;;;;24.98;39.59;99332.98;1804576;79;21542;-41
2021/07/23 08:22:58;;;;;;;3.12;1.20;;;;;;;25.10;39.70;99332.85;1804687;79;21850;-41
2021/07/23 08:25:25;;;;;;;2.70;1.10;;;;;;;25.23;38.47;99331.33;1804470;79;21510;-41
2021/07/23 08:27:52;;;;;;;1.87;1.00;;;;;;;25.31;36.17;99335.98;1804627;79;20918;-41
2021/07/23 08:30:18;;;;;;;2.80;1.17;;;;;;;25.34;37.67;99333.06;1804587;79;21083;-41
2021/07/23 08:32:45;;;;;;;2.50;1.05;;;;;;;25.45;37.44;99329.84;1804607;79;21079;-41
2021/07/23 08:35:13;;;;;;;2.60;1.12;;;;;;;25.60;37.16;99334.20;1804523;79;21824;-41
2021/07/23 08:37:41;;;;;;;2.60;1.15;;;;;;;25.70;36.73;99330.20;1804380;79;21060;-41
2021/07/23 08:40:10;;;;;;;2.83;1.12;;;;;;;25.80;37.75;99335.91;1804549;79;20926;-41
2021/07/23 08:42:37;;;;;;;3.52;1.35;;;;;;;25.97;37.30;99334.34;1804640;79;21527;-41
2021/07/23 08:45:08;;;;;;;2.05;1.25;;;;;;;26.12;37.01;99331.09;1804567;79;21006;-41
2021/07/23 08:47:36;;;;;;;2.37;1.22;;;;;;;26.22;36.93;99331.26;1804434;79;21129;-41
2021/07/23 08:50:04;;;;;;;2.77;1.10;;;;;;;26.22;36.53;99330.48;1804410;79;21048;-41
2021/07/23 08:52:45;;;;;;;4.10;1.07;;;;;;;26.08;35.99;99329.70;1804635;79;21064;-41
2021/07/23 08:55:14;;;;;;;5.17;1.40;;;;;;;25.83;36.97;99331.58;1804647;79;21495;-41
2021/07/23 08:57:41;;;;;;;3.98;1.30;;;;;;;25.67;37.06;99325.55;1804585;79;21096;-41
2021/07/23 09:00:11;;;;;;;2.27;1.12;;;;;;;25.61;38.88;99332.98;1804805;79;21844;-41
2021/07/23 09:02:56;;;;;;;;;;;;;;;25.58;38.20;99337.44;1807133;79;21033;-41
2021/07/23 09:05:29;;;;;;;3.75;1.30;;;;;;;25.57;38.40;99335.11;1804770;79;20173;-41
2021/07/23 09:08:19;;;;;;;3.17;1.30;;;;;;;25.56;38.56;99328.03;1804546;79;21029;-41
2021/07/23 09:11:04;;;;;;;3.70;1.52;;;;;;;25.75;38.68;99329.58;1804633;79;21610;-41
2021/07/23 09:13:30;;;;;;;7.12;1.45;;;;;;;25.94;37.69;99322.78;1804385;79;21117;-41
2021/07/23 09:15:58;;;;;;;2.10;1.40;;;;;;;26.10;37.16;99328.61;1804477;79;20990;-41
2021/07/23 09:18:31;;;;;;;2.15;1.00;;;;;;;26.25;35.97;99322.59;1804589;79;21020;-41
2021/07/23 09:21:03;;;;;;;5.28;1.45;;;;;;;26.35;36.36;99320.72;1804735;79;20961;-41
2021/07/23 09:23:36;;;;;;;3.45;1.10;;;;;;;26.52;35.88;99321.14;1804457;79;21053;-41
2021/07/23 09:26:15;;;;;;;3.98;1.15;;;;;;;26.69;35.01;99318.13;1804359;79;21558;-41
2021/07/23 09:28:47;;;;;;;2.65;1.25;;;;;;;26.76;34.63;99312.86;1804395;79;21001;-41
2021/07/23 09:31:27;;;;;;;4.15;1.02;;;;;;;26.78;34.21;99308.97;1804509;79;21005;-41
2021/07/23 09:33:55;;;;;;;4.15;1.20;;;;;;;26.81;34.83;99317.78;1804774;79;21001;-41
2021/07/23 09:36:21;;;;;;;7.05;4.95;;;;;;;26.77;34.34;99311.62;1804489;79;21005;-41
2021/07/23 09:38:48;;;;;;;4.08;1.52;;;;;;;26.74;34.89;99311.94;1804605;79;21579;-41
2021/07/23 09:41:25;;;;;;;3.67;1.10;;;;;;;26.74;34.81;99300.03;1804788;79;20978;-41
2021/07/23 09:44:08;;;;;;;1.62;1.15;;;;;;;26.68;33.38;99302.68;1804683;79;21494;-41
2021/07/23 09:46:37;;;;;;;2.60;1.12;;;;;;;26.64;35.29;99295.13;1804406;79;21009;-41
2021/07/23 09:49:30;;;;;;;3.77;1.30;;;;;;;26.72;35.20;99296.97;1804273;79;21566;-41
2021/07/23 09:51:55;;;;;;;1.67;1.40;;;;;;;26.83;35.44;99296.59;1803106;79;21150;-41
2021/07/23 09:54:22;;;;;;;4.28;1.20;;;;;;;26.97;35.34;99294.38;1804439;79;21642;-41
2021/07/23 09:56:50;;;;;;;1.67;1.05;;;;;;;27.10;34.58;99294.31;1798498;79;21012;-41
2021/07/23 09:59:39;;;;;;;2.62;1.27;;;;;;;27.15;33.50;99285.32;1804524;79;21029;-41
2021/07/23 10:02:07;;;;;;;2.58;1.10;;;;;;;27.13;32.97;99289.19;1804561;79;20997;-41
2021/07/23 10:04:53;;;;;;;2.02;1.12;;;;;;;27.01;32.76;99286.64;1800731;79;21794;-41
2021/07/23 10:07:21;;;;;;;3.10;1.30;;;;;;;26.94;33.85;99286.36;1796454;79;21018;-41
2021/07/23 10:09:48;;;;;;;3.30;1.35;;;;;;;26.96;34.05;99283.12;1796620;79;20961;-41
2021/07/23 10:12:16;;;;;;;3.22;1.47;;;;;;;26.98;33.57;99278.61;1796799;79;21056;-41
2021/07/23 10:14:46;;;;;;;4.03;1.07;;;;;;;26.91;33.79;99280.36;1796361;79;21009;-41
2021/07/23 10:17:13;;;;;;;4.62;1.60;;;;;;;26.93;34.87;99282.04;1796650;79;21119;-41
2021/07/23 10:19:40;;;;;;;2.98;1.47;;;;;;;27.03;34.51;99280.74;1796561;79;21777;-41
2021/07/23 10:22:07;;;;;;;1.92;1.07;;;;;;;27.18;35.00;99279.41;1796765;79;21060;-41
2021/07/23 10:24:36;;;;;;;2.95;1.40;;;;;;;27.43;35.29;99278.92;1774564;79;21021;-41
2021/07/23 10:30:01;;;;;;;4.00;1.55;;;;;;;27.92;33.39;99280.39;1779213;79;22623;-41
2021/07/23 10:32:32;;;;;;;4.47;2.20;;;;;;;27.93;33.56;99281.28;1727157;81;21037;-41
2021/07/23 10:35:19;;;;;;;4.33;1.85;;;;;;;28.07;33.10;99274.20;1755270;81;21119;-41
2021/07/23 10:37:52;;;;;;;7.92;2.22;;;;;;;28.33;32.99;99274.39;1755038;81;20970;-41
2021/07/23 10:40:21;;;;;;;2.02;1.50;;;;;;;28.55;31.86;99268.41;1726182;82;21004;-41
2021/07/23 10:42:48;;;;;;;3.60;1.75;;;;;;;28.56;31.02;99265.15;1747364;81;22044;-41
2021/07/23 10:45:19;;;;;;;2.37;1.50;;;;;;;28.53;32.06;99257.11;1756497;81;20977;-41
2021/07/23 10:47:50;;;;;;;2.62;1.35;;;;;;;28.64;33.02;99263.48;1776214;80;21139;-41
2021/07/23 10:50:31;;;;;;;2.92;1.65;;;;;;;28.82;32.18;99257.69;1777036;80;20957;-41
2021/07/23 10:53:21;;;;;;;4.33;2.05;;;;;;;28.95;32.16;99260.91;1777690;80;20952;-40
2021/07/23 10:55:48;;;;;;;4.10;2.62;;;;;;;29.09;31.62;99255.77;1751915;80;20971;-41
2021/07/23 10:58:20;;;;;;;5.33;2.05;;;;;;;29.07;30.51;99245.70;1776175;80;21021;-41
2021/07/23 11:00:59;;;;;;;5.87;1.98;;;;;;;29.09;31.65;99252.97;1761015;80;21128;-41
2021/07/23 11:03:43;;;;;;;3.17;1.60;;;;;;;29.29;32.16;99245.97;1758337;80;21566;-41
2021/07/23 11:06:33;;;;;;;5.28;1.95;;;;;;;29.58;31.90;99250.02;1756460;81;21460;-41
2021/07/23 11:09:06;;;;;;;3.62;1.62;;;;;;;29.88;30.14;99247.02;1755634;81;20969;-41
2021/07/23 11:11:32;;;;;;;3.22;1.57;;;;;;;29.98;30.01;99244.98;1720653;81;21628;-41
2021/07/23 11:14:17;;;;;;;3.33;1.80;;;;;;;30.02;30.39;99246.16;1735176;82;21132;-41
2021/07/23 11:16:43;;;;;;;3.22;1.92;;;;;;;30.22;29.99;99237.69;1721802;83;20977;-41
2021/07/23 11:19:22;;;;;;;3.85;1.95;;;;;;;30.31;29.21;99233.94;1721756;83;22077;-41
2021/07/23 11:21:48;;;;;;;3.42;1.75;;;;;;;30.30;29.50;99237.39;1721834;83;21039;-41
2021/07/23 11:24:16;;;;;;;2.85;1.70;;;;;;;30.31;28.60;99224.14;1723578;83;21036;-40
2021/07/23 11:26:52;;;;;;;6.60;1.77;;;;;;;30.33;29.77;99237.01;1723273;83;21203;-40
2021/07/23 11:29:35;;;;;;;3.12;1.70;;;;;;;30.40;29.53;99230.97;1718696;83;21037;-41
2021/07/23 11:32:12;;;;;;;6.08;1.92;;;;;;;30.47;28.89;99225.70;1715120;83;21016;-41
2021/07/23 11:34:44;;;;;;;2.80;1.87;;;;;;;30.50;29.51;99228.15;1715495;83;20989;-41
2021/07/23 11:37:16;;;;;;;2.55;1.50;;;;;;;30.53;29.42;99222.95;1715628;83;21618;-41
2021/07/23 11:39:57;;;;;;;3.98;1.92;;;;;;;30.62;28.85;99224.91;1714284;83;21418;-41
2021/07/23 11:42:26;;;;;;;1.92;1.40;;;;;;;30.70;29.43;99227.23;1720951;83;21248;-41
2021/07/23 11:45:00;;;;;;;2.42;1.55;;;;;;;30.91;29.46;99221.00;1712716;83;20983;-41
2021/07/23 11:47:36;;;;;;;2.22;1.40;;;;;;;31.25;29.60;99226.13;1747510;81;21037;-41